createdAt,value
2022-08-04T00:11:21.544Z,98029.10543224386
2022-08-04T00:14:19.336Z,98023.09959987063
2022-08-04T00:41:56.087Z,98030.56700564918
2022-08-04T00:44:47.580Z,98030.08024535462
2022-08-04T00:47:50.859Z,98030.04958166668
2022-08-04T00:51:32.645Z,98026.06994827109
2022-08-04T00:54:33.476Z,98027.38493749786
2022-08-04T00:57:34.305Z,98030.8047192831
2022-08-04T01:01:28.473Z,98031.43717423652
2022-08-04T01:04:23.929Z,98027.94089928272
2022-08-04T01:07:54.259Z,98030.90085422517
2022-08-04T01:11:29.590Z,98031.0748562298
2022-08-04T01:14:34.447Z,98029.7705042104
2022-08-04T01:17:22.043Z,98028.13835073095
2022-08-04T01:22:09.534Z,98021.6515354472
2022-08-04T01:24:30.099Z,98022.9123468766
2022-08-04T01:27:30.629Z,98015.69514803182
2022-08-04T01:31:25.060Z,98013.30164675193
2022-08-04T01:34:21.238Z,98010.80627857373
2022-08-04T01:37:30.877Z,98007.38987665037
2022-08-04T01:41:19.388Z,98005.3564838712
2022-08-04T01:44:22.070Z,98011.01522035261
2022-08-04T01:47:20.942Z,98011.08671648752
2022-08-04T01:51:18.686Z,98010.27180030671
2022-08-04T01:54:18.130Z,98014.47834539873
2022-08-04T01:57:38.850Z,98010.95804269737
2022-08-04T02:01:16.463Z,98005.59952616549
2022-08-04T02:04:23.137Z,98007.2105152032
2022-08-04T02:07:32.016Z,98003.44724766105
2022-08-04T02:11:20.244Z,97997.06452653954
2022-08-04T02:14:50.059Z,97999.67089170692
2022-08-04T02:17:24.439Z,98001.81088506237
2022-08-04T02:21:19.318Z,97999.87373397722
2022-08-04T02:24:21.700Z,97999.9547258127
2022-08-04T02:27:24.257Z,97997.91739428986
2022-08-04T02:31:26.289Z,98004.72656077404
2022-08-04T02:34:24.577Z,98002.29648838974
2022-08-04T02:37:17.147Z,97997.9733179973
2022-08-04T02:41:16.791Z,98004.89389898247
2022-08-04T02:44:20.738Z,98001.81980376953
2022-08-04T02:47:19.442Z,98002.44052170952
2022-08-04T02:51:20.560Z,98006.11289175665
2022-08-04T02:54:32.862Z,98003.80794806246
2022-08-04T02:57:17.864Z,98005.10814124926
2022-08-04T03:01:17.156Z,98004.51581578144
2022-08-04T03:04:30.892Z,98006.12621627022
2022-08-04T03:07:46.517Z,98005.99000893856
2022-08-04T03:11:41.357Z,97999.1647555953
2022-08-04T03:14:45.494Z,98003.51240269431
2022-08-04T03:21:37.834Z,98010.25334549892
2022-08-04T03:24:43.176Z,98011.1312270932
2022-08-04T03:27:43.085Z,98010.41743461919
2022-08-04T03:32:24.478Z,98008.21380144071
2022-08-04T03:34:32.944Z,98005.94497403201
2022-08-04T03:37:36.406Z,98008.3011546469
2022-08-04T03:41:51.668Z,98010.38630837323
2022-08-04T03:45:04.138Z,98015.16418677707
2022-08-04T04:01:57.803Z,98014.3264370663
2022-08-04T04:04:37.607Z,98016.20085541972
2022-08-04T04:07:58.301Z,98026.31919727396
2022-08-04T04:21:28.493Z,98037.32391384318
2022-08-04T04:25:18.434Z,98028.11567931999
2022-08-04T04:27:31.089Z,98026.83174841014
2022-08-04T04:31:32.805Z,98029.56839374702
2022-08-04T04:34:34.248Z,98026.89648129072
2022-08-04T04:37:31.529Z,98029.09486809287
2022-08-04T04:41:28.578Z,98032.57267267605
2022-08-04T04:44:42.338Z,98035.94279141519
2022-08-04T04:51:27.206Z,98035.26969484705
2022-08-04T04:54:27.759Z,98033.65215834393
2022-08-04T04:57:19.210Z,98036.28815716144
2022-08-04T05:01:39.109Z,98044.39856187237
2022-08-04T05:04:37.129Z,98047.83199706506
2022-08-04T05:07:37.233Z,98047.03478655395
2022-08-04T05:11:35.887Z,98048.35225161118
2022-08-04T05:14:37.803Z,98050.26143491348
2022-08-04T05:17:23.064Z,98048.6787513093
2022-08-04T05:21:33.079Z,98053.07471678805
2022-08-04T05:24:20.082Z,98053.6248917927
2022-08-04T05:27:21.514Z,98058.66849155695
2022-08-04T05:31:20.582Z,98059.98822026176
2022-08-04T05:34:21.511Z,98058.38711325453
2022-08-04T05:37:19.797Z,98059.86791854548
2022-08-04T05:41:16.283Z,98057.11845836524
2022-08-04T05:44:18.341Z,98053.69662835993
2022-08-04T05:47:17.277Z,98051.15012384165
2022-08-04T05:51:17.069Z,98051.78754092476
2022-08-04T05:54:18.300Z,98049.16724174615
2022-08-04T05:57:18.097Z,98048.22363007598
2022-08-04T06:01:22.275Z,98049.2294295324
2022-08-04T06:04:19.018Z,98051.69527193422
2022-08-04T06:07:16.666Z,98052.45306541865
2022-08-04T06:11:27.879Z,98055.56710444961
2022-08-04T06:14:29.137Z,98055.15583580796
2022-08-04T06:19:57.717Z,98058.59489987767
2022-08-04T06:21:20.035Z,98058.05457856966
2022-08-04T06:24:21.355Z,98056.09556551512
2022-08-04T06:27:18.147Z,98063.75582176975
2022-08-04T06:32:28.010Z,98065.28222311713
2022-08-04T06:34:16.940Z,98060.33890626779
2022-08-04T06:37:40.796Z,98065.20548483235
2022-08-04T06:41:16.159Z,98059.23809918898
2022-08-04T06:44:19.983Z,98059.53990223611
2022-08-04T06:47:21.008Z,98061.9237279246
2022-08-04T06:51:25.535Z,98062.35405722665
2022-08-04T06:54:16.961Z,98061.51329799068
2022-08-04T06:57:19.995Z,98064.9494926417
2022-08-04T07:01:18.882Z,98062.03577027089
2022-08-04T07:04:16.897Z,98065.98218958917
2022-08-04T07:07:17.518Z,98067.14752412702
2022-08-04T07:11:18.488Z,98066.72594994468
2022-08-04T07:14:18.188Z,98069.61009689914
2022-08-04T07:17:20.597Z,98067.84848508329
2022-08-04T07:21:20.379Z,98061.61777153416
2022-08-04T07:24:16.667Z,98057.23970446337
2022-08-04T07:27:16.889Z,98062.32361391047
2022-08-04T07:31:32.953Z,98062.1234116892
2022-08-04T07:34:22.095Z,98063.8865355583
2022-08-04T07:37:17.340Z,98058.12924825757
2022-08-04T07:41:36.492Z,98056.93197886439
2022-08-04T07:44:16.917Z,98051.21113853481
2022-08-04T07:47:26.508Z,98050.27066749791
2022-08-04T07:51:18.174Z,98051.4860065209
2022-08-04T07:54:18.497Z,98049.47987525458
2022-08-04T07:57:41.300Z,98052.82449893655
2022-08-04T08:01:16.307Z,98053.59154972239
2022-08-04T08:04:17.852Z,98046.6352231796
2022-08-04T08:07:23.565Z,98047.69202229763
2022-08-04T08:11:16.414Z,98048.36382610913
2022-08-04T08:14:17.507Z,98052.92606792579
2022-08-04T08:17:16.658Z,98049.17455511258
2022-08-04T08:21:19.402Z,98047.42005589622
2022-08-04T08:24:17.156Z,98048.755196368
2022-08-04T08:27:16.606Z,98050.04319297241
2022-08-04T08:31:16.394Z,98046.13293502858
2022-08-04T08:34:21.644Z,98049.54456307208
2022-08-04T08:37:25.326Z,98047.48042892458
2022-08-04T08:42:25.660Z,98047.29617792723
2022-08-04T08:44:46.269Z,98044.55055240593
2022-08-04T08:48:04.871Z,98042.77272756211
2022-08-04T08:51:34.812Z,98044.88031766686
2022-08-04T08:54:37.211Z,98047.09140833256
2022-08-04T08:57:59.263Z,98042.408363151
2022-08-04T09:01:39.726Z,98044.22112938977
2022-08-04T09:04:39.408Z,98048.87586439215
2022-08-04T09:07:33.959Z,98046.540631896
2022-08-04T09:31:51.736Z,98043.82492205687
2022-08-04T09:34:33.785Z,98045.719496105
2022-08-04T09:37:45.734Z,98042.86559330154
2022-08-04T09:41:48.481Z,98046.83299450966
2022-08-04T09:44:49.271Z,98041.13779448676
2022-08-04T09:47:23.774Z,98035.21781528511
2022-08-04T10:01:23.072Z,98020.82658086317
2022-08-04T10:04:21.351Z,98015.00323957583
2022-08-04T10:07:32.678Z,98019.39863401651
2022-08-04T10:11:26.615Z,98012.37824401856
2022-08-04T10:14:35.708Z,98015.37897827283
2022-08-04T10:17:33.840Z,98005.13656447531
2022-08-04T10:21:26.419Z,98002.3036654094
2022-08-04T10:24:32.263Z,98000.05242102823
2022-08-04T10:27:27.277Z,98003.8109193498
2022-08-04T10:31:23.991Z,97998.29172163451
2022-08-04T10:34:25.563Z,98000.59679957724
2022-08-04T10:37:23.629Z,98001.36281545693
2022-08-04T10:41:26.664Z,97991.78296415167
2022-08-04T10:44:42.180Z,97992.08058402916
2022-08-04T10:51:57.636Z,97994.67234354552
2022-08-04T11:11:23.517Z,97972.6227575932
2022-08-04T11:21:20.907Z,97966.73986144818
2022-08-04T11:31:22.061Z,97966.35346094682
2022-08-04T11:41:21.357Z,97954.42771237728
2022-08-04T11:51:18.377Z,97942.49703484062
2022-08-04T12:01:29.757Z,97941.13726646418
2022-08-04T12:11:39.739Z,97923.8187470278
2022-08-04T12:21:27.531Z,97917.85654264195
2022-08-04T12:31:23.724Z,97905.77460355584
2022-08-04T12:51:30.966Z,97903.30624436066
2022-08-04T13:02:10.269Z,97891.05617176538
2022-08-04T13:11:18.392Z,97880.14865849924
2022-08-04T13:21:21.186Z,97877.06171988686
2022-08-04T13:31:19.882Z,97866.15710258805
2022-08-04T13:41:18.066Z,97849.31822092895
2022-08-04T13:51:19.522Z,97850.67568377209
2022-08-04T14:01:20.216Z,97841.3615550743
2022-08-04T14:12:10.016Z,97833.83245087972
2022-08-04T14:21:17.262Z,97823.95226382173
2022-08-04T14:31:18.278Z,97828.24172836397
2022-08-04T14:41:19.615Z,97839.10859081731
2022-08-04T14:51:17.318Z,97826.4005987799
2022-08-04T15:01:18.969Z,97815.06952800171
2022-08-04T15:11:22.631Z,97809.04858812837
2022-08-04T15:21:18.202Z,97812.95664001013
2022-08-04T15:32:07.905Z,97833.51617245786
2022-08-04T15:41:25.578Z,97833.30342745404
2022-08-04T15:51:30.403Z,97831.75887152033
2022-08-04T16:01:18.336Z,97829.5870148023
2022-08-04T16:11:36.800Z,97824.73428603633
2022-08-04T16:21:19.840Z,97831.04667661934
2022-08-04T16:31:16.909Z,97844.59741694992
2022-08-04T16:41:38.388Z,97860.00707910294
2022-08-04T16:51:16.707Z,97869.5226524716
2022-08-04T17:01:32.327Z,97871.12616335152
2022-08-04T17:31:38.291Z,97884.82304903692
2022-08-04T17:41:19.079Z,97888.71238612625
2022-08-04T17:51:17.389Z,97892.28503381446
2022-08-04T18:01:24.655Z,97911.32718880316
2022-08-04T18:41:16.922Z,97951.81430302866
2022-08-04T18:51:23.942Z,97946.02531228645
2022-08-04T18:54:17.385Z,97955.57187457079
2022-08-04T18:57:32.344Z,97954.981050543
2022-08-04T19:01:16.032Z,97970.48707697482
2022-08-04T19:04:33.814Z,97968.19717959456
2022-08-04T19:07:28.626Z,97975.28313824831
2022-08-04T19:11:37.448Z,97977.74234373248
2022-08-04T19:14:19.886Z,97984.06717442966
2022-08-04T19:17:53.744Z,97994.68883727293
2022-08-04T19:21:17.419Z,98001.37149548529
2022-08-04T19:24:32.214Z,98006.05117817104
2022-08-04T19:27:17.928Z,98010.77059779181
2022-08-04T19:31:19.224Z,98020.82225275449
2022-08-04T19:34:33.320Z,98027.47284983173
2022-08-04T19:37:57.658Z,98038.03450001423
2022-08-04T19:41:18.420Z,98032.73111165671
2022-08-04T19:44:18.921Z,98030.24681719624
2022-08-04T19:51:22.688Z,98043.15705279646
2022-08-04T19:54:23.819Z,98054.15033131585
2022-08-04T19:57:19.301Z,98058.58746757996
2022-08-04T20:01:32.998Z,98058.37865163303
2022-08-04T20:11:18.974Z,98059.3649130337
2022-08-04T20:14:19.270Z,98062.04528969129
2022-08-04T20:31:19.042Z,98069.5638369116
2022-08-04T20:41:19.223Z,98072.32109282463
2022-08-04T20:44:24.351Z,98074.87023632102
2022-08-04T20:51:53.544Z,98072.3152579542
2022-08-04T21:01:19.645Z,98071.02573525562
2022-08-04T21:04:43.545Z,98070.22967147287
2022-08-04T21:07:20.051Z,98077.33338191926
2022-08-04T21:11:18.393Z,98076.82969938916
2022-08-04T21:14:19.238Z,98075.94804756445
2022-08-04T21:17:20.197Z,98075.75536573697
2022-08-04T21:21:43.065Z,98075.96237957051
2022-08-04T22:11:50.394Z,98083.41276581894
2022-08-04T22:14:50.371Z,98080.95936298974
2022-08-04T23:21:16.825Z,98070.75811697119
2022-08-04T23:24:17.112Z,98077.3995075455
2022-08-04T23:27:17.094Z,98081.82530459255
2022-08-04T23:31:16.464Z,98083.82202157141
2022-08-04T23:34:18.874Z,98083.31387732721
2022-08-04T23:37:16.787Z,98086.75555788357
2022-08-04T23:41:17.270Z,98086.143099328
2022-08-04T23:44:24.298Z,98087.06367190529
2022-08-04T23:48:16.086Z,98089.09236503212
2022-08-04T23:51:16.315Z,98086.34272284269
2022-08-04T23:54:16.417Z,98080.94983117477
2022-08-04T23:57:17.180Z,98086.49398329695
